Time;durP1;ratioP1;P1;durP2;ratioP2;P2;SDS_P1;SDS_P2;PMS_P1;PMS_P2;Temp;Humidity;BMP_temperature;BMP_pressure;BME280_temperature;BME280_humidity;BME280_pressure;Samples;Min_cycle;Max_cycle;Signal;HPM_P1;HPM_P2
2021/09/14 00:01:10;;;;;;;;;;;;;;;16.30;76.89;96450.56;5053186;28;19974;-82
2021/09/14 00:03:35;;;;;;;;;;;;;;;16.28;76.81;96444.72;5053887;28;19958;-82
2021/09/14 00:06:01;;;;;;;;;;;;;;;16.24;76.89;96447.09;5053391;28;20036;-82
2021/09/14 00:08:27;;;;;;;;;;;;;;;16.21;76.94;96443.09;5053241;28;19964;-82
2021/09/14 00:10:53;;;;;;;;;;;;;;;16.19;77.02;96445.19;5052252;28;19962;-82
2021/09/14 00:13:19;;;;;;;;;;;;;;;16.17;76.71;96446.50;5053201;28;19993;-83
2021/09/14 00:15:49;;;;;;;;;;;;;;;16.14;76.42;96442.50;5053078;28;19974;-82
2021/09/14 00:18:15;;;;;;;;;;;;;;;16.13;77.06;96453.34;5053273;28;20009;-82
2021/09/14 00:20:41;;;;;;;;;;;;;;;16.09;77.30;96446.97;5053193;28;19970;-82
2021/09/14 00:23:06;;;;;;;;;;;;;;;16.07;77.53;96441.13;5053072;28;19984;-82
2021/09/14 00:25:32;;;;;;;;;;;;;;;16.05;77.65;96443.25;5053216;28;20023;-82
2021/09/14 00:28:02;;;;;;;;;;;;;;;16.02;77.35;96441.88;5053100;28;20359;-82
2021/09/14 00:30:29;;;;;;;;;;;;;;;16.00;77.04;96436.84;5051262;28;19974;-82
2021/09/14 00:32:55;;;;;;;;;;;;;;;15.99;77.10;96440.53;5053253;28;19965;-82
2021/09/14 00:35:20;;;;;;;;;;;;;;;15.98;77.95;96438.13;5053230;28;20430;-82
2021/09/14 00:37:46;;;;;;;;;;;;;;;15.94;77.70;96437.84;5052988;28;19960;-82
2021/09/14 00:40:12;;;;;;;;;;;;;;;15.94;77.99;96445.78;5053046;28;20011;-82
2021/09/14 00:42:38;;;;;;;;;;;;;;;15.93;77.95;96435.47;5053156;28;19955;-83
2021/09/14 00:45:05;;;;;;;;;;;;;;;15.91;78.34;96435.69;5052862;28;20013;-82
2021/09/14 00:47:31;;;;;;;;;;;;;;;15.89;78.39;96431.72;5053037;28;19986;-82
2021/09/14 00:50:06;;;;;;;;;;;;;;;15.87;78.29;96424.03;5053038;28;20334;-83
2021/09/14 00:52:33;;;;;;;;;;;;;;;15.85;77.95;96428.78;5052827;28;20442;-83
2021/09/14 00:54:59;;;;;;;;;;;;;;;15.83;77.70;96417.66;5053105;28;19981;-82
2021/09/14 00:57:25;;;;;;;;;;;;;;;15.81;77.93;96420.56;5052668;28;19956;-82
2021/09/14 00:59:51;;;;;;;;;;;;;;;15.79;77.74;96411.28;5052597;28;20012;-82
2021/09/14 01:02:17;;;;;;;;;;;;;;;15.77;77.72;96418.66;5052943;28;19953;-82
2021/09/14 01:04:43;;;;;;;;;;;;;;;15.75;78.30;96410.19;5053959;28;19962;-82
2021/09/14 01:07:09;;;;;;;;;;;;;;;15.71;78.07;96407.22;5056442;28;19958;-83
2021/09/14 01:09:36;;;;;;;;;;;;;;;15.70;78.29;96413.53;5056404;28;19956;-82
2021/09/14 01:12:02;;;;;;;;;;;;;;;15.68;78.28;96407.72;5056207;28;19962;-83
2021/09/14 01:14:29;;;;;;;;;;;;;;;15.67;78.29;96411.41;5047711;28;19962;-83
2021/09/14 01:16:55;;;;;;;;;;;;;;;15.66;78.54;96422.22;5056425;28;20375;-83
2021/09/14 01:19:21;;;;;;;;;;;;;;;15.63;78.68;96415.59;5056157;28;19958;-83
2021/09/14 01:21:47;;;;;;;;;;;;;;;15.60;78.25;96411.63;5056440;28;19958;-82
2021/09/14 01:24:13;;;;;;;;;;;;;;;15.57;78.54;96413.97;5055846;28;20015;-82
2021/09/14 01:26:39;;;;;;;;;;;;;;;15.53;78.29;96405.72;5055869;28;19986;-83
2021/09/14 01:29:06;;;;;;;;;;;;;;;15.50;78.39;96408.88;5056430;28;19959;-82
2021/09/14 01:31:32;;;;;;;;;;;;;;;15.46;78.35;96405.16;5055294;28;19957;-82
2021/09/14 01:33:58;;;;;;;;;;;;;;;15.45;78.76;96405.38;5054492;28;19972;-83
2021/09/14 01:36:24;;;;;;;;;;;;;;;15.41;78.75;96407.72;5056124;28;20094;-82
2021/09/14 01:38:50;;;;;;;;;;;;;;;15.37;78.71;96404.81;5055813;28;19959;-82
2021/09/14 01:41:16;;;;;;;;;;;;;;;15.35;78.82;96411.34;5055607;28;20373;-83
2021/09/14 01:43:42;;;;;;;;;;;;;;;15.32;78.83;96411.88;5055929;28;20353;-83
2021/09/14 01:46:08;;;;;;;;;;;;;;;15.30;78.77;96411.31;5055673;28;19950;-82
2021/09/14 01:48:34;;;;;;;;;;;;;;;15.30;78.18;96413.97;5055635;28;19960;-82
2021/09/14 01:51:00;;;;;;;;;;;;;;;15.29;78.42;96417.66;5055791;28;20394;-83
2021/09/14 01:53:27;;;;;;;;;;;;;;;15.26;78.47;96415.50;5055500;28;19955;-83
2021/09/14 01:55:59;;;;;;;;;;;;;;;15.22;78.61;96423.13;5055460;28;19981;-83
2021/09/14 01:58:25;;;;;;;;;;;;;;;15.21;78.53;96424.97;5055642;28;19962;-83
2021/09/14 02:01:05;;;;;;;;;;;;;;;15.19;78.46;96420.97;5055513;28;20403;-83
2021/09/14 02:06:19;;;;;;;;;;;;;;;15.12;78.93;96423.81;5055148;28;19958;-82
2021/09/14 02:09:12;;;;;;;;;;;;;;;15.09;79.19;96419.00;5055848;28;20317;-82
2021/09/14 02:33:59;;;;;;;;;;;;;;;14.91;79.53;96417.50;5055138;28;19956;-83
2021/09/14 02:41:52;;;;;;;;;;;;;;;14.84;79.98;96414.22;5052665;28;20387;-83
2021/09/14 03:00:28;;;;;;;;;;;;;;;14.73;80.05;96399.31;5054176;28;19981;-82
2021/09/14 03:02:54;;;;;;;;;;;;;;;14.71;79.88;96399.56;5054431;28;20410;-82
2021/09/14 03:05:20;;;;;;;;;;;;;;;14.72;79.89;96403.00;5053458;28;19959;-83
2021/09/14 03:07:46;;;;;;;;;;;;;;;14.71;80.04;96399.56;5054276;28;19958;-83
2021/09/14 03:10:12;;;;;;;;;;;;;;;14.72;80.65;96401.16;5054033;28;20374;-82
2021/09/14 03:12:38;;;;;;;;;;;;;;;14.71;80.25;96399.56;5054129;28;19964;-82
2021/09/14 03:15:04;;;;;;;;;;;;;;;14.72;80.12;96403.00;5053743;28;19997;-82
2021/09/14 03:17:30;;;;;;;;;;;;;;;14.73;80.58;96400.09;5054145;28;19971;-82
2021/09/14 03:19:56;;;;;;;;;;;;;;;14.74;80.48;96399.09;5053938;28;20410;-82
2021/09/14 03:22:22;;;;;;;;;;;;;;;14.75;80.91;96402.50;5054256;28;19986;-82
2021/09/14 03:24:48;;;;;;;;;;;;;;;14.76;80.73;96409.38;5053785;28;19967;-82
2021/09/14 03:27:14;;;;;;;;;;;;;;;14.74;81.06;96403.53;5053524;28;19965;-83
2021/09/14 03:29:40;;;;;;;;;;;;;;;14.74;80.88;96399.09;5053850;28;19959;-83
2021/09/14 03:32:06;;;;;;;;;;;;;;;14.72;80.93;96395.88;5053906;28;20344;-82
2021/09/14 03:34:32;;;;;;;;;;;;;;;14.70;80.72;96405.06;5053745;28;19961;-82
2021/09/14 03:36:58;;;;;;;;;;;;;;;14.67;80.40;96395.81;5054232;28;20326;-83
2021/09/14 03:39:24;;;;;;;;;;;;;;;14.66;80.29;96398.69;5053828;28;20048;-83
2021/09/14 03:41:50;;;;;;;;;;;;;;;14.64;80.49;96398.94;5053457;28;19969;-83
2021/09/14 03:44:15;;;;;;;;;;;;;;;14.61;80.41;96404.69;5053515;28;19965;-83
2021/09/14 03:46:41;;;;;;;;;;;;;;;14.59;80.32;96393.59;5053819;28;19974;-83
2021/09/14 03:49:07;;;;;;;;;;;;;;;14.57;80.79;96393.03;5054017;28;19960;-83
2021/09/14 03:51:34;;;;;;;;;;;;;;;14.55;80.51;96392.44;5053466;28;19991;-82
2021/09/14 03:54:00;;;;;;;;;;;;;;;14.53;80.43;96397.16;5053523;28;20009;-83
2021/09/14 03:56:26;;;;;;;;;;;;;;;14.52;80.08;96385.81;5053312;28;20059;-83
2021/09/14 03:58:52;;;;;;;;;;;;;;;14.50;80.02;96387.91;5053171;28;19956;-83
2021/09/14 04:01:17;;;;;;;;;;;;;;;14.47;80.34;96387.59;5052433;28;19972;-83
2021/09/14 04:03:50;;;;;;;;;;;;;;;14.45;80.67;96387.84;5053474;28;20368;-82
2021/09/14 04:06:37;;;;;;;;;;;;;;;14.44;81.05;96388.88;5053485;28;20411;-82
2021/09/14 04:09:03;;;;;;;;;;;;;;;14.41;80.69;96392.03;5053397;28;19965;-83
2021/09/14 04:11:29;;;;;;;;;;;;;;;14.38;80.41;96384.56;5053885;28;20409;-83
2021/09/14 04:13:55;;;;;;;;;;;;;;;14.36;80.10;96382.19;5053450;28;20345;-83
2021/09/14 04:16:21;;;;;;;;;;;;;;;14.34;80.26;96379.00;5052436;28;20014;-82
2021/09/14 04:18:47;;;;;;;;;;;;;;;14.33;80.56;96382.66;5053448;28;20462;-82
2021/09/14 04:21:13;;;;;;;;;;;;;;;14.31;80.26;96376.03;5053155;28;20448;-83
2021/09/14 04:23:39;;;;;;;;;;;;;;;14.30;80.55;96379.72;5053775;28;20014;-82
2021/09/14 04:26:05;;;;;;;;;;;;;;;14.27;80.54;96373.09;5052912;28;19967;-82
2021/09/14 04:28:31;;;;;;;;;;;;;;;14.23;80.44;96369.34;5053821;28;19966;-83
2021/09/14 04:30:57;;;;;;;;;;;;;;;14.21;80.20;96368.78;5053132;28;20269;-83
2021/09/14 04:33:23;;;;;;;;;;;;;;;14.20;80.25;96377.75;5053385;28;20332;-83
2021/09/14 04:35:49;;;;;;;;;;;;;;;14.19;80.99;96387.50;5053262;28;19974;-83
2021/09/14 04:38:15;;;;;;;;;;;;;;;14.18;81.24;96372.72;5053087;28;19999;-83
2021/09/14 04:40:41;;;;;;;;;;;;;;;14.18;81.95;96388.53;5055997;28;19967;-82
2021/09/14 04:43:07;;;;;;;;;;;;;;;14.16;81.87;96390.63;5057233;28;19961;-83
2021/09/14 04:45:33;;;;;;;;;;;;;;;14.16;81.92;96393.25;5057071;28;19957;-83
2021/09/14 04:47:59;;;;;;;;;;;;;;;14.15;81.79;96385.56;5057031;28;20428;-83
2021/09/14 04:50:25;;;;;;;;;;;;;;;14.13;81.25;96385.00;5055424;28;19970;-83
2021/09/14 04:52:50;;;;;;;;;;;;;;;14.10;81.00;96381.03;5057105;28;20394;-83
2021/09/14 04:55:16;;;;;;;;;;;;;;;14.08;80.99;96383.09;5056544;28;20056;-83
2021/09/14 04:57:42;;;;;;;;;;;;;;;14.07;81.13;96380.69;5056690;28;19978;-83
2021/09/14 05:00:11;;;;;;;;;;;;;;;14.05;81.06;96380.16;5056736;28;19972;-83
2021/09/14 05:02:37;;;;;;;;;;;;;;;14.04;81.12;96376.72;5055334;28;19956;-83
2021/09/14 05:05:03;;;;;;;;;;;;;;;14.06;80.94;96381.75;5056579;28;19963;-83
2021/09/14 05:07:29;;;;;;;;;;;;;;;14.06;81.10;96387.81;5056230;28;20344;-83
2021/09/14 05:09:55;;;;;;;;;;;;;;;14.06;81.76;96381.75;5056596;28;19958;-83
2021/09/14 05:12:21;;;;;;;;;;;;;;;14.07;81.67;96383.34;5055304;28;20005;-83
2021/09/14 05:14:47;;;;;;;;;;;;;;;14.06;81.45;96382.53;5056743;28;19999;-83
2021/09/14 05:17:13;;;;;;;;;;;;;;;14.07;81.57;96389.44;5056001;28;20460;-83
2021/09/14 05:19:41;;;;;;;;;;;;;;;14.09;81.61;96394.44;5055851;28;20018;-83
2021/09/14 05:22:07;;;;;;;;;;;;;;;14.10;81.16;96393.41;5055910;28;19962;-83
2021/09/14 05:24:33;;;;;;;;;;;;;;;14.12;82.16;96392.13;5056462;28;19966;-83
2021/09/14 05:27:00;;;;;;;;;;;;;;;14.15;82.27;96393.47;5056024;28;19955;-83
2021/09/14 05:29:26;;;;;;;;;;;;;;;14.16;82.22;96393.25;5056310;28;19964;-83
2021/09/14 05:31:52;;;;;;;;;;;;;;;14.19;81.97;96397.25;5055835;28;19957;-83
2021/09/14 05:34:19;;;;;;;;;;;;;;;14.25;81.75;96396.28;5055970;28;20530;-83
2021/09/14 05:36:45;;;;;;;;;;;;;;;14.45;81.21;96392.31;5055515;28;20342;-83
2021/09/14 05:39:11;;;;;;;;;;;;;;;14.69;80.29;96399.00;5056105;28;19998;-83
2021/09/14 05:41:37;;;;;;;;;;;;;;;14.98;79.39;96394.34;5053980;28;19964;-83
2021/09/14 05:44:03;;;;;;;;;;;;;;;15.22;78.90;96394.88;5055900;28;20033;-84
2021/09/14 05:46:29;;;;;;;;;;;;;;;15.40;78.67;96396.34;5055756;28;19970;-83
2021/09/14 05:48:55;;;;;;;;;;;;;;;15.68;77.94;96393.69;5055683;28;19956;-83
2021/09/14 05:51:21;;;;;;;;;;;;;;;16.06;76.88;96400.63;5054200;28;20033;-83
2021/09/14 05:53:47;;;;;;;;;;;;;;;16.46;75.44;96390.56;5056193;28;19971;-83
2021/09/14 05:56:13;;;;;;;;;;;;;;;16.78;74.36;96387.84;5055599;28;20051;-83
2021/09/14 05:58:38;;;;;;;;;;;;;;;17.17;73.52;96382.94;5055581;28;19958;-83
2021/09/14 06:01:04;;;;;;;;;;;;;;;17.64;72.20;96383.84;5055733;28;20042;-83
2021/09/14 06:03:32;;;;;;;;;;;;;;;18.07;70.92;96376.41;5055227;28;19972;-83
2021/09/14 06:05:58;;;;;;;;;;;;;;;18.46;70.22;96378.47;5055338;28;19959;-83
2021/09/14 06:08:24;;;;;;;;;;;;;;;18.80;69.63;96383.19;5055492;28;19959;-83
2021/09/14 06:10:50;;;;;;;;;;;;;;;19.03;68.58;96382.53;5055416;28;20428;-83
2021/09/14 06:13:16;;;;;;;;;;;;;;;19.10;68.39;96397.41;5055285;28;19973;-83
2021/09/14 06:15:42;;;;;;;;;;;;;;;19.21;68.50;96391.78;5055374;28;20377;-83
2021/09/14 06:18:09;;;;;;;;;;;;;;;19.40;67.64;96391.94;5055132;28;19966;-83
2021/09/14 06:20:35;;;;;;;;;;;;;;;19.44;67.23;96392.16;5054829;28;19967;-83
2021/09/14 06:23:01;;;;;;;;;;;;;;;19.43;67.15;96394.00;5053798;28;19989;-83
2021/09/14 06:25:27;;;;;;;;;;;;;;;19.32;66.72;96389.84;5055092;28;19963;-83
2021/09/14 06:27:52;;;;;;;;;;;;;;;19.32;67.57;96389.84;5055262;28;20346;-83
2021/09/14 06:30:18;;;;;;;;;;;;;;;19.33;67.58;96383.44;5055092;28;20051;-83
2021/09/14 06:32:44;;;;;;;;;;;;;;;19.36;67.49;96385.56;5054681;28;20050;-83
2021/09/14 06:35:10;;;;;;;;;;;;;;;19.36;67.88;96388.22;5054741;28;19959;-83
2021/09/14 06:37:37;;;;;;;;;;;;;;;19.36;67.69;96395.38;5054654;28;19963;-83
2021/09/14 06:40:03;;;;;;;;;;;;;;;19.38;67.85;96403.88;5054657;28;20324;-82
2021/09/14 06:42:30;;;;;;;;;;;;;;;19.43;68.52;96409.97;5055082;28;19994;-82
2021/09/14 06:44:57;;;;;;;;;;;;;;;19.47;68.21;96416.34;5054819;28;20036;-82
2021/09/14 06:47:23;;;;;;;;;;;;;;;19.46;67.62;96411.28;5054616;28;19967;-82
2021/09/14 06:49:48;;;;;;;;;;;;;;;19.49;68.08;96416.06;5054186;28;19975;-82
2021/09/14 06:52:14;;;;;;;;;;;;;;;19.54;68.20;96410.69;5054618;28;19957;-82
2021/09/14 06:54:40;;;;;;;;;;;;;;;19.55;68.91;96416.81;5054530;28;19988;-82
2021/09/14 06:57:06;;;;;;;;;;;;;;;19.52;68.13;96417.38;5054427;28;20070;-82
2021/09/14 06:59:32;;;;;;;;;;;;;;;19.49;68.23;96408.09;5054141;28;19962;-82
2021/09/14 07:01:58;;;;;;;;;;;;;;;19.33;68.63;96403.91;5053970;28;19974;-82
2021/09/14 07:04:24;;;;;;;;;;;;;;;19.25;68.43;96408.72;5054489;28;19966;-82
2021/09/14 07:06:51;;;;;;;;;;;;;;;19.36;69.10;96408.69;5054091;28;19980;-82
2021/09/14 07:09:18;;;;;;;;;;;;;;;19.60;69.13;96409.59;5054322;28;19965;-82
2021/09/14 07:11:44;;;;;;;;;;;;;;;19.82;67.06;96401.25;5054256;28;19959;-82
2021/09/14 07:14:10;;;;;;;;;;;;;;;19.89;66.29;96408.13;5054043;28;19966;-82
2021/09/14 07:16:35;;;;;;;;;;;;;;;19.95;66.64;96407.78;5052989;28;19975;-82
2021/09/14 07:19:01;;;;;;;;;;;;;;;20.03;65.57;96401.88;5053571;28;19976;-82
2021/09/14 07:21:27;;;;;;;;;;;;;;;20.02;66.29;96408.25;5053869;28;19960;-81
2021/09/14 07:23:53;;;;;;;;;;;;;;;20.04;67.20;96410.66;5053192;28;19970;-82
2021/09/14 07:26:19;;;;;;;;;;;;;;;20.10;66.14;96406.06;5053919;28;19974;-82
2021/09/14 07:28:45;;;;;;;;;;;;;;;20.06;66.82;96408.50;5054033;28;20477;-81
2021/09/14 07:31:13;;;;;;;;;;;;;;;19.99;65.90;96405.34;5053479;28;20399;-81
2021/09/14 07:33:39;;;;;;;;;;;;;;;20.07;66.23;96408.22;5053755;28;19964;-81
2021/09/14 07:36:08;;;;;;;;;;;;;;;20.18;66.01;96408.13;5054124;28;20004;-81
2021/09/14 07:38:39;;;;;;;;;;;;;;;20.22;65.64;96406.47;5053567;28;20342;-81
2021/09/14 07:41:06;;;;;;;;;;;;;;;20.25;65.88;96406.72;5054058;28;19963;-81
2021/09/14 07:43:32;;;;;;;;;;;;;;;20.35;66.32;96416.50;5053539;28;19964;-81
2021/09/14 07:45:58;;;;;;;;;;;;;;;20.59;66.03;96410.41;5053804;28;20422;-81
2021/09/14 07:48:24;;;;;;;;;;;;;;;20.85;65.65;96403.75;5054255;28;19964;-81
2021/09/14 07:50:50;;;;;;;;;;;;;;;21.11;64.49;96402.63;5053694;28;20395;-82
2021/09/14 07:53:16;;;;;;;;;;;;;;;21.31;63.68;96398.88;5053719;28;19971;-81
2021/09/14 07:55:41;;;;;;;;;;;;;;;21.37;63.36;96400.41;5053491;28;20421;-81
2021/09/14 07:58:07;;;;;;;;;;;;;;;21.41;62.61;96406.75;5053551;28;20072;-81
2021/09/14 08:00:33;;;;;;;;;;;;;;;21.28;62.38;96409.06;5053872;28;19958;-81
2021/09/14 08:02:59;;;;;;;;;;;;;;;21.31;63.56;96415.69;5053752;28;20016;-81
2021/09/14 08:05:26;;;;;;;;;;;;;;;21.33;61.59;96402.06;5053379;28;20056;-81
2021/09/14 08:07:52;;;;;;;;;;;;;;;21.28;63.43;96417.06;5053256;28;19967;-81
2021/09/14 08:10:18;;;;;;;;;;;;;;;21.33;63.34;96408.19;5053390;28;20097;-81
2021/09/14 08:12:43;;;;;;;;;;;;;;;21.41;63.03;96404.88;5053299;28;20484;-81
2021/09/14 08:15:10;;;;;;;;;;;;;;;21.55;63.18;96396.97;5055328;28;19972;-81
2021/09/14 08:17:36;;;;;;;;;;;;;;;21.70;62.85;96393.28;5057472;28;20001;-81
2021/09/14 08:20:03;;;;;;;;;;;;;;;21.81;62.15;96389.38;5057734;28;20396;-82
2021/09/14 08:22:29;;;;;;;;;;;;;;;21.85;61.76;96392.25;5055309;28;19996;-81
2021/09/14 08:24:55;;;;;;;;;;;;;;;21.93;62.29;96396.16;5055645;28;20492;-81
2021/09/14 08:27:21;;;;;;;;;;;;;;;21.90;61.83;96400.16;5057148;28;19973;-81
2021/09/14 08:29:47;;;;;;;;;;;;;;;21.85;62.20;96398.38;5057161;28;19968;-81
2021/09/14 08:32:13;;;;;;;;;;;;;;;21.94;62.99;96406.50;5057279;28;19962;-81
2021/09/14 08:34:39;;;;;;;;;;;;;;;22.04;62.83;96398.34;5057190;28;19968;-82
2021/09/14 08:37:05;;;;;;;;;;;;;;;22.08;60.81;96379.88;5056860;28;20052;-81
2021/09/14 08:39:31;;;;;;;;;;;;;;;22.14;62.77;96397.38;5057186;28;19962;-81
2021/09/14 08:41:57;;;;;;;;;;;;;;;22.21;61.54;96386.31;5056881;28;19981;-81
2021/09/14 08:44:23;;;;;;;;;;;;;;;22.28;61.53;96389.44;5057210;28;19963;-81
2021/09/14 08:46:49;;;;;;;;;;;;;;;22.29;62.22;96391.81;5056805;28;19959;-81
2021/09/14 08:49:15;;;;;;;;;;;;;;;22.27;61.27;96387.84;5056847;28;19963;-81
2021/09/14 08:51:41;;;;;;;;;;;;;;;22.28;62.21;96392.91;5056718;28;19991;-81
2021/09/14 08:54:08;;;;;;;;;;;;;;;22.37;61.33;96382.31;5055761;28;19963;-81
2021/09/14 08:56:34;;;;;;;;;;;;;;;22.38;61.46;96380.44;5056565;28;19974;-81
2021/09/14 08:59:01;;;;;;;;;;;;;;;22.43;61.11;96393.72;5056840;28;19966;-81
2021/09/14 09:01:27;;;;;;;;;;;;;;;22.44;61.09;96388.06;5056579;28;19965;-82
2021/09/14 09:04:00;;;;;;;;;;;;;;;22.47;60.51;96379.47;5055569;28;19964;-81
2021/09/14 09:06:32;;;;;;;;;;;;;;;22.53;62.72;96400.75;5055468;28;20340;-81
2021/09/14 09:09:12;;;;;;;;;;;;;;;22.56;61.30;96392.16;5056349;28;19951;-81
2021/09/14 09:11:50;;;;;;;;;;;;;;;22.65;61.77;96388.47;5056864;28;19973;-81
2021/09/14 09:14:16;;;;;;;;;;;;;;;22.70;61.67;96390.28;5056436;28;19968;-81
2021/09/14 09:16:43;;;;;;;;;;;;;;;22.75;62.15;96392.84;5054461;28;19981;-81
2021/09/14 09:19:09;;;;;;;;;;;;;;;22.87;62.07;96392.34;5054939;28;20408;-81
2021/09/14 09:21:39;;;;;;;;;;;;;;;22.95;60.59;96378.28;5056071;28;19976;-81
2021/09/14 09:24:09;;;;;;;;;;;;;;;22.94;60.78;96381.25;5056042;28;19994;-81
2021/09/14 09:26:35;;;;;;;;;;;;;;;22.92;62.06;96391.44;5056454;28;19970;-81
2021/09/14 09:29:04;;;;;;;;;;;;;;;22.83;60.55;96383.34;5056147;28;20625;-81
2021/09/14 09:31:30;;;;;;;;;;;;;;;22.74;61.13;96390.44;5055929;28;19962;-81
2021/09/14 09:34:06;;;;;;;;;;;;;;;22.79;62.44;96401.84;5056161;28;20347;-81
2021/09/14 09:36:35;;;;;;;;;;;;;;;22.83;60.38;96380.66;5055585;28;19972;-81
2021/09/14 09:39:03;;;;;;;;;;;;;;;22.86;62.43;96402.22;5055595;28;19954;-81
2021/09/14 09:41:33;;;;;;;;;;;;;;;22.99;63.35;96395.28;5055737;28;20413;-81
2021/09/14 09:44:11;;;;;;;;;;;;;;;23.08;61.93;96385.50;5056252;28;19971;-81
2021/09/14 09:46:38;;;;;;;;;;;;;;;23.22;59.92;96373.97;5054600;28;19966;-81
2021/09/14 09:49:06;;;;;;;;;;;;;;;23.31;61.85;96382.91;5055101;28;19971;-81
2021/09/14 09:51:32;;;;;;;;;;;;;;;23.39;60.41;96365.31;5055851;28;19980;-81
2021/09/14 09:54:00;;;;;;;;;;;;;;;23.45;60.75;96372.13;5055481;28;19981;-81
2021/09/14 09:56:25;;;;;;;;;;;;;;;23.53;60.87;96365.28;5055555;28;19965;-81
2021/09/14 09:58:52;;;;;;;;;;;;;;;23.56;60.21;96362.81;5054891;28;19996;-81
2021/09/14 10:01:21;;;;;;;;;;;;;;;23.59;59.32;96359.50;5055177;28;20473;-81
2021/09/14 10:03:53;;;;;;;;;;;;;;;23.58;57.81;96352.59;5054694;28;19968;-81
2021/09/14 10:06:20;;;;;;;;;;;;;;;23.56;58.16;96357.44;5055726;28;19964;-81
2021/09/14 10:08:50;;;;;;;;;;;;;;;23.59;59.85;96366.75;5055431;28;19969;-81
2021/09/14 10:11:23;;;;;;;;;;;;;;;23.63;58.70;96359.69;5055286;28;19950;-81
2021/09/14 10:13:49;;;;;;;;;;;;;;;23.65;58.88;96368.22;5053433;28;19971;-81
2021/09/14 10:16:24;;;;;;;;;;;;;;;23.64;58.15;96359.38;5054363;28;19955;-81
2021/09/14 10:18:50;;;;;;;;;;;;;;;23.67;58.88;96374.06;5055373;28;19978;-81
2021/09/14 10:21:19;;;;;;;;;;;;;;;23.72;57.79;96360.53;5054859;28;19965;-81
2021/09/14 10:23:54;;;;;;;;;;;;;;;23.84;58.92;96373.41;5054820;28;19997;-81
2021/09/14 10:26:30;;;;;;;;;;;;;;;23.97;58.87;96363.72;5054860;28;19982;-81
2021/09/14 10:28:56;;;;;;;;;;;;;;;24.07;57.87;96358.13;5055517;28;19969;-81
2021/09/14 10:31:26;;;;;;;;;;;;;;;24.16;56.20;96344.75;5054877;28;19971;-81
2021/09/14 10:34:02;;;;;;;;;;;;;;;24.24;56.86;96342.13;5054765;28;20428;-81
2021/09/14 10:36:28;;;;;;;;;;;;;;;24.36;57.94;96349.59;5054697;28;19967;-81
2021/09/14 10:38:54;;;;;;;;;;;;;;;24.48;57.54;96344.44;5054262;28;19987;-81
2021/09/14 10:41:20;;;;;;;;;;;;;;;24.58;56.37;96335.34;5054608;28;20002;-81
2021/09/14 10:43:54;;;;;;;;;;;;;;;24.70;56.28;96332.84;5054807;28;19964;-80
2021/09/14 10:46:21;;;;;;;;;;;;;;;24.77;55.25;96340.44;5054592;28;19968;-80
2021/09/14 10:48:47;;;;;;;;;;;;;;;24.84;54.75;96331.94;5054535;28;20360;-81
2021/09/14 10:51:16;;;;;;;;;;;;;;;24.83;55.17;96333.03;5054414;28;19967;-81
2021/09/14 10:53:55;;;;;;;;;;;;;;;24.90;55.08;96330.69;5054885;28;19986;-81
2021/09/14 10:56:21;;;;;;;;;;;;;;;24.99;54.69;96326.13;5054261;28;19959;-81
2021/09/14 10:58:47;;;;;;;;;;;;;;;25.07;52.99;96308.44;5054775;28;19994;-81
2021/09/14 11:01:21;;;;;;;;;;;;;;;25.05;55.31;96334.81;5054300;28;19972;-81
2021/09/14 11:03:51;;;;;;;;;;;;;;;24.99;53.42;96309.22;5053522;28;19978;-81
2021/09/14 11:06:17;;;;;;;;;;;;;;;24.93;52.13;96308.59;5054143;28;20307;-79
2021/09/14 11:08:45;;;;;;;;;;;;;;;24.97;53.92;96322.16;5054304;28;19975;-81
2021/09/14 11:11:15;;;;;;;;;;;;;;;25.11;54.86;96330.88;5054413;28;19970;-80
2021/09/14 11:13:41;;;;;;;;;;;;;;;25.22;53.47;96318.78;5054110;28;19963;-80
2021/09/14 11:16:07;;;;;;;;;;;;;;;25.27;52.68;96310.53;5053902;28;20059;-81
2021/09/14 11:18:33;;;;;;;;;;;;;;;25.25;54.01;96331.53;5053428;28;19983;-81
2021/09/14 11:21:13;;;;;;;;;;;;;;;25.22;53.95;96326.00;5053755;28;20457;-81
2021/09/14 11:23:41;;;;;;;;;;;;;;;25.18;53.80;96328.53;5053808;28;20361;-81
2021/09/14 11:26:08;;;;;;;;;;;;;;;25.12;54.80;96332.47;5054217;28;19965;-81
2021/09/14 11:28:34;;;;;;;;;;;;;;;25.05;54.72;96332.13;5053750;28;19965;-81
2021/09/14 11:31:02;;;;;;;;;;;;;;;25.08;53.60;96326.13;5053641;28;20340;-81
2021/09/14 11:33:29;;;;;;;;;;;;;;;25.01;52.86;96313.19;5053739;28;20430;-81
2021/09/14 11:35:55;;;;;;;;;;;;;;;25.00;54.04;96343.03;5052806;28;19979;-81
2021/09/14 11:38:22;;;;;;;;;;;;;;;25.01;54.19;96347.25;5053650;28;19983;-81
2021/09/14 11:40:49;;;;;;;;;;;;;;;25.05;54.57;96340.97;5052670;28;19977;-81
2021/09/14 11:43:18;;;;;;;;;;;;;;;25.12;55.34;96351.25;5053617;28;19982;-81
2021/09/14 11:45:45;;;;;;;;;;;;;;;25.19;54.38;96340.03;5051896;28;19976;-81
2021/09/14 11:48:18;;;;;;;;;;;;;;;25.26;53.50;96340.38;5053694;28;19961;-81
2021/09/14 11:50:44;;;;;;;;;;;;;;;25.28;53.27;96330.13;5053484;28;19971;-81
2021/09/14 11:53:14;;;;;;;;;;;;;;;25.30;53.01;96326.03;5053392;28;19982;-81
2021/09/14 11:55:44;;;;;;;;;;;;;;;25.35;52.44;96313.56;5053530;28;19979;-81
2021/09/14 11:58:11;;;;;;;;;;;;;;;25.39;52.94;96315.28;5053335;28;19991;-81
2021/09/14 12:00:39;;;;;;;;;;;;;;;25.40;53.48;96329.50;5053683;28;20469;-81
2021/09/14 12:03:05;;;;;;;;;;;;;;;25.39;52.10;96314.47;5051716;28;19968;-81
2021/09/14 12:05:32;;;;;;;;;;;;;;;25.40;53.07;96321.44;5052293;28;19967;-81
2021/09/14 12:07:59;;;;;;;;;;;;;;;25.40;52.53;96316.06;5053321;28;19973;-81
2021/09/14 12:10:26;;;;;;;;;;;;;;;25.39;51.00;96301.06;5052650;28;19975;-81
2021/09/14 12:12:52;;;;;;;;;;;;;;;25.41;52.11;96312.28;5053479;28;19968;-81
2021/09/14 12:15:22;;;;;;;;;;;;;;;25.46;53.90;96326.34;5053524;28;20350;-80
2021/09/14 12:17:48;;;;;;;;;;;;;;;25.52;50.55;96294.75;5053369;28;19984;-81
2021/09/14 12:20:14;;;;;;;;;;;;;;;25.57;51.49;96302.63;5052951;28;19975;-81
2021/09/14 12:22:41;;;;;;;;;;;;;;;25.69;53.50;96318.09;5052861;28;19991;-81
2021/09/14 12:25:07;;;;;;;;;;;;;;;25.86;52.05;96304.63;5053188;28;19971;-81
2021/09/14 12:27:33;;;;;;;;;;;;;;;25.92;48.61;96273.81;5053148;28;19969;-81
2021/09/14 12:29:59;;;;;;;;;;;;;;;26.08;51.50;96297.47;5053511;28;19961;-81
2021/09/14 12:32:26;;;;;;;;;;;;;;;26.32;50.23;96272.72;5053470;28;19984;-80
2021/09/14 12:34:52;;;;;;;;;;;;;;;26.61;50.25;96274.66;5053135;28;19982;-81
2021/09/14 12:37:18;;;;;;;;;;;;;;;26.85;48.77;96254.41;5053061;28;19975;-80
2021/09/14 12:39:44;;;;;;;;;;;;;;;27.00;49.71;96264.56;5053069;28;20086;-81
2021/09/14 12:42:10;;;;;;;;;;;;;;;27.10;49.09;96271.47;5053537;28;19977;-81
2021/09/14 12:44:36;;;;;;;;;;;;;;;26.97;48.48;96267.16;5053115;28;20005;-81
2021/09/14 12:47:02;;;;;;;;;;;;;;;26.86;47.12;96256.78;5053032;28;19976;-80
2021/09/14 12:49:28;;;;;;;;;;;;;;;26.96;49.34;96279.00;5052969;28;19970;-80
2021/09/14 12:51:54;;;;;;;;;;;;;;;27.00;47.53;96263.78;5052657;28;20053;-80
2021/09/14 12:54:19;;;;;;;;;;;;;;;26.91;49.32;96283.47;5052169;28;20440;-81
2021/09/14 12:56:45;;;;;;;;;;;;;;;26.82;47.94;96265.81;5052920;28;20048;-81
2021/09/14 12:59:11;;;;;;;;;;;;;;;26.82;49.33;96282.75;5052971;28;20456;-81
2021/09/14 13:01:37;;;;;;;;;;;;;;;26.83;48.98;96280.84;5054178;28;19974;-80
2021/09/14 13:04:03;;;;;;;;;;;;;;;26.85;48.11;96271.31;5056479;28;19973;-80
2021/09/14 13:06:30;;;;;;;;;;;;;;;26.88;48.64;96272.59;5056344;28;19967;-81
2021/09/14 13:08:56;;;;;;;;;;;;;;;26.90;49.24;96278.44;5056570;28;19975;-81
2021/09/14 13:11:21;;;;;;;;;;;;;;;26.88;47.96;96268.00;5056168;28;20385;-81
2021/09/14 13:16:32;;;;;;;;;;;;;;;26.84;50.43;96283.22;5056375;28;20370;-81
2021/09/14 13:18:58;;;;;;;;;;;;;;;26.84;49.02;96263.59;5056068;28;19977;-81
2021/09/14 13:21:24;;;;;;;;;;;;;;;26.71;49.26;96276.97;5055906;28;19972;-81
2021/09/14 13:23:51;;;;;;;;;;;;;;;26.59;49.37;96273.41;5056450;28;19977;-81
2021/09/14 13:26:18;;;;;;;;;;;;;;;26.51;50.14;96266.94;5054228;28;19969;-81
2021/09/14 13:28:44;;;;;;;;;;;;;;;26.47;48.89;96268.69;5042906;28;19963;-81
2021/09/14 13:31:11;;;;;;;;;;;;;;;26.46;49.34;96273.28;5055450;28;20219;-81
2021/09/14 13:33:38;;;;;;;;;;;;;;;26.55;49.71;96272.47;5056093;28;19976;-81
2021/09/14 13:36:04;;;;;;;;;;;;;;;26.63;49.52;96264.38;5056317;28;19963;-80